Time;durP1;ratioP1;P1;durP2;ratioP2;P2;SDS_P1;SDS_P2;PMS_P1;PMS_P2;Temp;Humidity;BMP_temperature;BMP_pressure;BME280_temperature;BME280_humidity;BME280_pressure;Samples;Min_cycle;Max_cycle;Signal;HPM_P1;HPM_P2
2023/08/26 00:00:40;;;;;;;9.27;3.20;;;;;;;14.72;81.87;100176.06;4992801;28;20034;-45
2023/08/26 00:03:07;;;;;;;7.53;1.65;;;;;;;14.72;81.60;100187.22;4991132;28;20468;-45
2023/08/26 00:05:33;;;;;;;7.28;2.53;;;;;;;14.72;81.73;100186.44;4989912;28;20042;-44
2023/08/26 00:08:01;;;;;;;5.03;1.20;;;;;;;14.67;81.64;100184.78;4987183;28;20046;-48
2023/08/26 00:10:27;;;;;;;13.60;2.45;;;;;;;14.66;81.79;100177.63;4986628;28;20404;-42
2023/08/26 00:12:54;;;;;;;6.05;1.50;;;;;;;14.65;81.67;100176.03;4992262;28;20050;-43
2023/08/26 00:15:22;;;;;;;11.55;1.73;;;;;;;14.61;81.74;100172.44;4991608;28;20477;-45
2023/08/26 00:17:50;;;;;;;6.20;1.52;;;;;;;14.62;81.69;100185.16;4989558;28;20412;-47
2023/08/26 00:20:21;;;;;;;4.13;1.52;;;;;;;14.62;81.65;100196.28;4990742;28;20042;-44
2023/08/26 00:22:48;;;;;;;9.25;1.65;;;;;;;14.60;81.76;100184.75;4991412;28;20446;-42
2023/08/26 00:25:15;;;;;;;9.82;1.83;;;;;;;14.56;81.88;100183.94;4992347;28;20042;-45
2023/08/26 00:27:41;;;;;;;6.45;2.72;;;;;;;14.56;81.76;100186.72;4992043;28;20053;-44
2023/08/26 00:30:08;;;;;;;9.57;2.00;;;;;;;14.60;81.78;100190.31;4994409;28;20057;-43
2023/08/26 00:32:35;;;;;;;6.20;1.52;;;;;;;14.59;81.80;100188.69;4985844;28;20050;-44
2023/08/26 00:35:02;;;;;;;8.90;2.20;;;;;;;14.54;81.69;100181.50;4991990;28;20042;-42
2023/08/26 00:37:31;;;;;;;6.07;2.03;;;;;;;14.51;81.79;100181.47;4990325;28;20073;-44
2023/08/26 00:39:57;;;;;;;5.05;1.67;;;;;;;14.53;81.90;100174.34;4990638;28;20034;-43
2023/08/26 00:42:24;;;;;;;4.45;1.58;;;;;;;14.55;81.57;100182.31;4989687;28;20042;-42
2023/08/26 00:44:51;;;;;;;5.72;2.58;;;;;;;14.43;81.73;100171.47;4988526;28;20054;-43
2023/08/26 00:47:19;;;;;;;6.85;1.70;;;;;;;14.37;81.68;100184.16;4997432;28;20053;-46
2023/08/26 00:49:46;;;;;;;5.95;1.73;;;;;;;14.35;81.72;100181.75;4989930;28;20504;-43
2023/08/26 00:52:12;;;;;;;5.63;1.80;;;;;;;14.31;81.87;100185.66;4985731;28;20132;-43
2023/08/26 00:54:39;;;;;;;8.32;2.03;;;;;;;14.31;81.97;100182.88;4977958;28;20496;-42
2023/08/26 00:57:07;;;;;;;7.53;1.80;;;;;;;14.26;81.99;100186.00;4987872;28;20486;-49
2023/08/26 00:59:33;;;;;;;6.82;2.13;;;;;;;14.21;82.00;100175.22;4990486;28;20517;-45
2023/08/26 01:02:01;;;;;;;5.90;1.55;;;;;;;14.15;81.97;100171.97;4990541;28;20050;-45
2023/08/26 01:04:28;;;;;;;4.93;1.98;;;;;;;14.16;81.94;100184.72;4991632;28;20088;-43
2023/08/26 01:06:55;;;;;;;9.32;1.77;;;;;;;14.18;82.15;100176.78;4989635;28;20054;-50
2023/08/26 01:09:23;;;;;;;4.30;1.58;;;;;;;14.15;81.73;100168.41;4972534;28;20057;-42
2023/08/26 01:12:17;;;;;;;4.53;1.27;;;;;;;14.07;82.04;100166.72;4990680;28;20042;-46
2023/08/26 01:15:09;;;;;;;12.77;1.83;;;;;;;14.04;82.20;100160.75;4976766;28;20054;-43
2023/08/26 01:17:36;;;;;;;4.93;1.58;;;;;;;14.00;82.18;100161.91;4979580;28;20058;-44
2023/08/26 01:20:07;;;;;;;6.95;2.10;;;;;;;13.96;82.20;100156.28;4990247;28;20058;-47
2023/08/26 01:22:36;;;;;;;3.65;1.65;;;;;;;13.98;82.22;100155.88;4993434;28;20113;-43
2023/08/26 01:25:03;;;;;;;6.85;2.75;;;;;;;14.00;82.50;100151.53;4992182;28;20996;-44
2023/08/26 01:27:30;;;;;;;7.88;1.73;;;;;;;13.93;82.38;100151.47;4993967;28;20046;-43
2023/08/26 01:29:57;;;;;;;9.10;4.15;;;;;;;13.88;82.41;100153.81;4993419;28;20046;-49
2023/08/26 01:32:48;;;;;;;9.60;2.10;;;;;;;13.86;82.71;100151.41;4986132;28;20046;-44
2023/08/26 01:35:22;;;;;;;6.75;1.77;;;;;;;13.86;82.86;100154.19;4993761;28;20542;-43
2023/08/26 01:37:49;;;;;;;6.40;2.40;;;;;;;13.83;82.86;100157.75;4994781;28;20057;-44
2023/08/26 01:40:19;;;;;;;6.15;2.00;;;;;;;13.81;83.11;100148.19;4995068;28;20410;-43
2023/08/26 01:42:47;;;;;;;3.50;1.70;;;;;;;13.80;83.31;100147.38;4993560;28;20046;-43
2023/08/26 01:45:14;;;;;;;10.52;2.95;;;;;;;13.83;83.12;100157.75;4987126;28;20050;-44
2023/08/26 01:47:41;;;;;;;7.82;1.92;;;;;;;13.76;83.31;100152.09;4991888;28;20046;-42
2023/08/26 01:50:08;;;;;;;4.60;1.38;;;;;;;13.72;83.64;100140.13;4992953;28;20497;-44
2023/08/26 01:52:35;;;;;;;9.18;1.67;;;;;;;13.74;83.64;100154.44;4993442;28;20097;-42
2023/08/26 01:55:02;;;;;;;5.38;1.67;;;;;;;13.75;83.85;100152.47;4993405;28;20035;-42
2023/08/26 01:57:29;;;;;;;6.05;1.95;;;;;;;13.69;83.72;100149.22;4994775;28;20050;-43
2023/08/26 01:59:56;;;;;;;9.13;1.60;;;;;;;13.70;83.94;100142.50;4993644;28;20120;-43
2023/08/26 02:02:22;;;;;;;6.60;1.77;;;;;;;13.74;84.08;100142.53;4993324;28;20042;-41
2023/08/26 02:04:50;;;;;;;6.78;1.75;;;;;;;13.70;83.98;100136.94;4992330;28;20058;-43
2023/08/26 02:07:18;;;;;;;5.13;1.52;;;;;;;13.67;84.19;100143.25;4993870;28;20050;-41
2023/08/26 02:09:45;;;;;;;7.20;1.70;;;;;;;13.67;84.48;100143.25;4991848;28;20125;-48
2023/08/26 02:12:12;;;;;;;10.93;2.28;;;;;;;13.66;84.54;100144.41;4993210;28;20046;-44
2023/08/26 02:14:38;;;;;;;7.30;2.22;;;;;;;13.68;84.46;100150.44;4987108;28;20157;-42
2023/08/26 02:17:05;;;;;;;9.50;2.00;;;;;;;13.70;84.67;100147.25;4992028;28;20052;-41
2023/08/26 02:19:32;;;;;;;7.25;1.48;;;;;;;13.66;84.71;100152.75;4993217;28;20046;-48
2023/08/26 02:22:00;;;;;;;12.45;3.88;;;;;;;13.64;85.04;100154.31;4992774;28;20054;-43
2023/08/26 02:24:27;;;;;;;8.15;2.75;;;;;;;13.65;85.25;100161.50;4986295;28;20039;-44
2023/08/26 02:26:54;;;;;;;5.97;1.80;;;;;;;13.65;85.13;100151.19;4993198;28;20265;-47
2023/08/26 02:29:21;;;;;;;6.55;2.05;;;;;;;13.62;85.16;100151.94;4992317;28;20045;-41
2023/08/26 02:31:47;;;;;;;6.28;1.40;;;;;;;13.59;85.25;100147.13;4992031;28;20058;-41
2023/08/26 02:34:15;;;;;;;6.75;1.88;;;;;;;13.64;85.40;100148.75;4992757;28;20073;-42
2023/08/26 02:36:42;;;;;;;6.15;1.73;;;;;;;13.63;85.54;100163.88;4987990;28;20046;-42
2023/08/26 02:39:08;;;;;;;5.25;1.48;;;;;;;13.62;85.61;100151.94;4993339;28;20467;-43
2023/08/26 02:41:35;;;;;;;8.52;1.67;;;;;;;13.62;85.63;100154.72;4991919;28;20038;-43
2023/08/26 02:44:02;;;;;;;8.50;1.80;;;;;;;13.63;85.60;100148.00;4992660;28;20077;-42
2023/08/26 02:46:29;;;;;;;9.43;1.92;;;;;;;13.61;85.67;100139.19;4991715;28;20066;-45
2023/08/26 02:48:56;;;;;;;4.63;1.67;;;;;;;13.62;85.82;100142.78;4993082;28;20544;-42
2023/08/26 02:51:23;;;;;;;8.18;2.10;;;;;;;13.62;85.85;100140.00;4993206;28;20396;-44
2023/08/26 02:53:49;;;;;;;4.35;1.70;;;;;;;13.64;85.92;100138.44;4990413;28;20104;-45
2023/08/26 02:56:16;;;;;;;5.43;1.65;;;;;;;13.67;86.07;100134.09;4991653;28;20054;-46
2023/08/26 02:58:43;;;;;;;6.60;2.05;;;;;;;13.68;86.20;100144.06;4990720;28;20112;-43
2023/08/26 03:01:10;;;;;;;6.80;1.70;;;;;;;13.66;86.20;100135.31;5078934;23;20510;-44
2023/08/26 03:03:37;;;;;;;9.35;2.20;;;;;;;13.68;86.14;100136.53;5009467;28;20425;-43
2023/08/26 03:06:03;;;;;;;6.43;1.60;;;;;;;13.65;86.27;100137.28;5011560;28;20176;-45
2023/08/26 03:08:31;;;;;;;3.88;1.40;;;;;;;13.64;86.46;100137.63;5010110;28;20038;-45
2023/08/26 03:11:03;;;;;;;4.88;1.60;;;;;;;13.66;86.52;100122.16;5012945;28;20515;-44
2023/08/26 03:13:31;;;;;;;8.57;1.88;;;;;;;13.68;86.27;100127.38;5011510;28;20046;-46
2023/08/26 03:16:05;;;;;;;4.25;1.38;;;;;;;13.64;86.50;100124.53;5011654;28;20053;-47
2023/08/26 03:18:31;;;;;;;3.25;1.55;;;;;;;13.56;86.42;100120.06;5012440;28;20077;-44
2023/08/26 03:21:09;;;;;;;13.45;4.03;;;;;;;13.55;86.75;100118.50;5012662;28;20129;-44
2023/08/26 03:23:36;;;;;;;6.40;2.17;;;;;;;13.52;86.78;100121.22;5009932;28;20042;-46
2023/08/26 03:26:04;;;;;;;5.50;1.58;;;;;;;13.48;86.86;100121.16;5011057;28;20050;-43
2023/08/26 03:28:31;;;;;;;9.27;2.20;;;;;;;13.50;86.81;100112.47;5010383;28;20038;-43
2023/08/26 03:31:05;;;;;;;3.88;1.02;;;;;;;13.50;86.98;100118.84;5004992;28;20060;-44
2023/08/26 03:33:35;;;;;;;9.00;1.52;;;;;;;13.47;86.71;100111.25;5000151;28;20583;-43
2023/08/26 03:36:06;;;;;;;5.35;1.52;;;;;;;13.46;86.83;100114.38;5011828;28;20100;-44
2023/08/26 03:38:36;;;;;;;2.70;1.13;;;;;;;13.45;86.94;100116.38;5011404;28;20507;-45
2023/08/26 03:41:06;;;;;;;14.68;4.13;;;;;;;13.43;87.08;100116.75;4985449;28;20049;-44
2023/08/26 03:43:33;;;;;;;6.38;1.52;;;;;;;13.47;86.94;100111.25;4993069;28;20037;-44
2023/08/26 03:45:59;;;;;;;4.88;1.73;;;;;;;13.46;86.95;100115.19;5009862;28;20050;-44
2023/08/26 03:48:27;;;;;;;7.13;2.00;;;;;;;13.46;86.96;100120.75;5010634;28;20046;-44
2023/08/26 03:50:56;;;;;;;4.82;1.00;;;;;;;13.50;87.00;100118.84;5011724;28;20096;-44
2023/08/26 03:53:24;;;;;;;7.60;1.58;;;;;;;13.50;87.18;100120.81;5010537;28;20045;-44
2023/08/26 03:55:51;;;;;;;4.60;1.17;;;;;;;13.53;87.12;100123.59;5009397;28;20104;-44
2023/08/26 03:58:18;;;;;;;11.68;1.65;;;;;;;13.56;87.04;100122.06;5011849;28;20124;-44
2023/08/26 04:00:45;;;;;;;7.13;1.92;;;;;;;13.55;87.18;100112.13;5011273;28;20052;-48
2023/08/26 04:03:12;;;;;;;7.75;1.23;;;;;;;13.51;87.20;100122.41;5011249;28;20050;-44
2023/08/26 04:05:39;;;;;;;5.57;1.00;;;;;;;13.44;87.49;100117.56;5011086;28;20133;-44
2023/08/26 04:08:06;;;;;;;6.18;1.13;;;;;;;13.43;87.34;100118.72;5007222;28;20042;-45
2023/08/26 04:10:32;;;;;;;6.85;1.40;;;;;;;13.40;87.31;100119.50;5009883;28;20089;-46
2023/08/26 04:13:19;;;;;;;2.83;1.33;;;;;;;13.37;87.55;100117.47;5010080;28;20558;-44
2023/08/26 04:15:46;;;;;;;5.22;1.50;;;;;;;13.35;87.49;100117.84;5009038;28;20467;-46
2023/08/26 04:18:14;;;;;;;4.07;1.40;;;;;;;13.36;87.48;100115.88;5011984;28;20458;-45
2023/08/26 04:20:42;;;;;;;3.75;1.10;;;;;;;13.35;87.50;100114.25;5010836;28;20784;-44
2023/08/26 04:23:10;;;;;;;4.53;1.67;;;;;;;13.28;87.67;100112.22;5008651;28;20136;-47
2023/08/26 04:25:37;;;;;;;5.18;1.10;;;;;;;13.27;87.68;100112.56;5009810;28;20817;-46
2023/08/26 04:28:05;;;;;;;2.88;1.00;;;;;;;13.24;87.83;100121.66;5013191;28;20439;-46
2023/08/26 04:30:32;;;;;;;7.05;1.10;;;;;;;13.22;87.89;100124.03;4994150;28;20108;-44
2023/08/26 04:33:00;;;;;;;3.67;1.35;;;;;;;13.22;88.15;100127.63;5007898;28;20088;-46
2023/08/26 04:35:27;;;;;;;5.32;1.17;;;;;;;13.20;88.19;100124.44;5010743;28;20419;-45
2023/08/26 04:37:54;;;;;;;4.75;1.00;;;;;;;13.20;88.37;100129.19;5011602;28;20038;-45
2023/08/26 04:40:22;;;;;;;7.20;1.25;;;;;;;13.24;88.49;100135.56;5011789;28;20046;-48
2023/08/26 04:42:53;;;;;;;3.72;1.55;;;;;;;13.24;88.50;100130.81;4993786;28;20077;-45
2023/08/26 04:45:20;;;;;;;4.53;1.00;;;;;;;13.27;88.59;100129.25;5009601;28;20096;-45
2023/08/26 04:47:47;;;;;;;2.03;0.70;;;;;;;13.24;88.61;100136.38;5010237;28;20141;-46
2023/08/26 04:50:14;;;;;;;10.13;1.15;;;;;;;13.26;88.46;100133.22;5011013;28;20065;-46
2023/08/26 04:52:42;;;;;;;3.90;0.80;;;;;;;13.29;88.29;100129.69;5009545;28;20485;-45
2023/08/26 04:55:10;;;;;;;8.02;0.98;;;;;;;13.31;88.64;100122.59;5010269;28;20049;-46
2023/08/26 04:57:37;;;;;;;4.75;0.90;;;;;;;13.31;88.76;100130.13;5007411;28;20033;-45
2023/08/26 05:00:10;;;;;;;3.38;1.10;;;;;;;13.31;88.61;100127.34;5009790;28;20505;-47
2023/08/26 05:02:38;;;;;;;2.85;0.60;;;;;;;13.29;88.78;100126.91;5010054;28;20050;-45
2023/08/26 05:05:06;;;;;;;4.00;1.00;;;;;;;13.32;88.65;100134.47;5004327;28;20436;-45
2023/08/26 05:07:33;;;;;;;5.30;1.35;;;;;;;13.31;88.83;100130.13;5003732;28;20050;-45
2023/08/26 05:10:01;;;;;;;4.38;1.00;;;;;;;13.33;88.90;100131.34;5009932;28;20058;-45
2023/08/26 05:12:27;;;;;;;4.20;2.08;;;;;;;13.33;89.06;100133.31;5010243;28;20038;-44
2023/08/26 05:14:54;;;;;;;3.55;1.00;;;;;;;13.33;89.11;100128.56;4993551;28;20399;-47
2023/08/26 05:17:21;;;;;;;9.02;1.10;;;;;;;13.30;88.97;100134.88;5000945;28;20099;-44
2023/08/26 05:19:48;;;;;;;4.60;1.02;;;;;;;13.30;89.17;100139.63;5020928;28;20129;-45
2023/08/26 05:22:15;;;;;;;7.57;1.30;;;;;;;13.24;89.26;100133.59;5011332;28;20525;-45
2023/08/26 05:24:41;;;;;;;4.75;1.42;;;;;;;13.26;89.49;100136.00;5011028;28;20080;-45
2023/08/26 05:27:08;;;;;;;6.55;1.38;;;;;;;13.25;89.56;100143.53;5011234;28;20092;-46
2023/08/26 05:29:35;;;;;;;4.97;0.98;;;;;;;13.24;89.35;100139.16;5011023;28;20045;-45
2023/08/26 05:32:02;;;;;;;2.72;1.00;;;;;;;13.26;89.30;100133.22;5011392;28;20085;-45
2023/08/26 05:34:31;;;;;;;5.75;1.15;;;;;;;13.22;89.59;100144.28;5010455;28;20459;-45
2023/08/26 05:36:58;;;;;;;5.72;1.35;;;;;;;13.22;89.54;100143.50;5011466;28;20519;-45
2023/08/26 05:39:24;;;;;;;4.18;1.15;;;;;;;13.25;89.82;100134.41;5010901;28;20053;-45
2023/08/26 05:41:51;;;;;;;3.80;1.35;;;;;;;13.22;89.65;100135.16;5011324;28;20042;-45
2023/08/26 05:44:18;;;;;;;7.00;1.08;;;;;;;13.23;89.96;100145.09;5010161;28;20042;-46
2023/08/26 05:46:45;;;;;;;4.15;1.02;;;;;;;13.25;89.62;100142.75;5006713;28;20057;-45
2023/08/26 05:49:11;;;;;;;3.33;0.93;;;;;;;13.24;89.93;100141.13;5010141;28;20077;-46
2023/08/26 05:51:38;;;;;;;4.65;1.05;;;;;;;13.22;89.64;100137.94;4976294;28;20054;-45
2023/08/26 05:54:05;;;;;;;5.07;1.58;;;;;;;13.23;90.08;100140.34;5010878;28;20038;-45
2023/08/26 05:56:32;;;;;;;2.95;0.90;;;;;;;13.22;89.86;100143.50;5008716;28;20049;-45
2023/08/26 05:58:59;;;;;;;5.18;1.15;;;;;;;13.24;90.13;100141.94;5008026;28;20038;-45
2023/08/26 06:01:26;;;;;;;7.75;1.23;;;;;;;13.30;89.90;100146.00;5008819;28;20049;-45
2023/08/26 06:03:54;;;;;;;3.25;1.00;;;;;;;13.29;89.81;100151.94;5001921;28;20048;-45
2023/08/26 06:06:21;;;;;;;3.90;1.00;;;;;;;13.31;90.06;100152.34;5008962;28;20184;-46
2023/08/26 06:08:48;;;;;;;3.90;0.80;;;;;;;13.37;89.98;100148.84;5011614;28;20077;-46
2023/08/26 06:11:15;;;;;;;3.60;1.15;;;;;;;13.43;90.05;100154.88;5014013;28;20049;-46
2023/08/26 06:13:41;;;;;;;2.35;0.70;;;;;;;13.49;90.09;100153.38;5012068;28;20488;-45
2023/08/26 06:16:08;;;;;;;4.25;1.10;;;;;;;13.51;90.13;100159.34;5010551;28;20042;-46
2023/08/26 06:18:35;;;;;;;2.70;0.70;;;;;;;13.51;89.95;100145.44;5012519;28;20443;-46
2023/08/26 06:21:02;;;;;;;5.22;1.10;;;;;;;13.50;90.05;100146.66;5013526;28;20046;-47
2023/08/26 06:23:29;;;;;;;2.92;1.00;;;;;;;13.51;90.05;100162.13;5013346;28;20046;-46
2023/08/26 06:25:57;;;;;;;5.43;1.08;;;;;;;13.51;90.13;100162.13;5013465;28;20041;-45
2023/08/26 06:28:24;;;;;;;4.90;1.20;;;;;;;13.56;90.05;100152.63;4995170;28;20038;-45
2023/08/26 06:30:57;;;;;;;5.85;1.20;;;;;;;13.58;90.10;100162.22;5007337;28;20092;-45
2023/08/26 06:33:24;;;;;;;5.45;1.08;;;;;;;13.60;89.95;100157.09;5012284;28;20034;-45
2023/08/26 06:35:50;;;;;;;4.05;0.80;;;;;;;13.63;90.00;100159.13;5011694;28;20507;-47
2023/08/26 06:38:17;;;;;;;5.55;1.05;;;;;;;13.64;89.95;100155.13;5012200;28;20057;-45
2023/08/26 06:40:55;;;;;;;4.00;0.90;;;;;;;13.67;89.84;100151.59;4993303;28;20054;-46
2023/08/26 06:43:23;;;;;;;2.70;1.20;;;;;;;13.71;89.92;100149.66;5009347;28;20084;-45
2023/08/26 06:45:51;;;;;;;5.43;0.70;;;;;;;13.77;90.17;100153.69;5011986;28;20054;-45
2023/08/26 06:48:17;;;;;;;8.75;1.55;;;;;;;13.79;89.78;100156.88;5012573;28;20125;-45
2023/08/26 06:50:48;;;;;;;7.70;1.27;;;;;;;13.84;89.72;100153.78;5012561;28;20054;-45
2023/08/26 06:53:21;;;;;;;2.00;0.88;;;;;;;13.85;89.63;100163.72;5011049;28;20499;-45
2023/08/26 06:55:49;;;;;;;4.43;0.95;;;;;;;13.85;89.47;100162.91;5012215;28;20124;-45
2023/08/26 06:58:16;;;;;;;4.07;0.95;;;;;;;13.89;89.50;100161.78;5012746;28;20042;-45
2023/08/26 07:00:44;;;;;;;6.00;0.90;;;;;;;13.97;89.60;100165.44;5015232;28;20038;-46
2023/08/26 07:03:11;;;;;;;4.28;1.10;;;;;;;14.06;89.32;100165.13;5013145;28;20046;-46
2023/08/26 07:05:41;;;;;;;3.03;1.50;;;;;;;14.10;89.11;100171.53;5013468;28;20141;-46
2023/08/26 07:08:08;;;;;;;6.13;0.85;;;;;;;14.09;89.00;100169.91;5013528;28;20054;-45
2023/08/26 07:10:35;;;;;;;3.28;1.13;;;;;;;14.13;89.15;100173.56;5013481;28;20092;-45
2023/08/26 07:13:02;;;;;;;4.70;1.27;;;;;;;14.15;89.02;100173.97;5000424;28;20050;-46
2023/08/26 07:15:28;;;;;;;6.13;0.90;;;;;;;14.21;89.21;100180.78;5012161;28;20046;-46
2023/08/26 07:17:55;;;;;;;2.85;1.00;;;;;;;14.33;89.22;100175.75;5010682;28;20105;-45
2023/08/26 07:20:24;;;;;;;4.85;1.10;;;;;;;14.45;89.02;100180.25;5010288;28;20084;-45
2023/08/26 07:22:51;;;;;;;4.93;0.80;;;;;;;14.57;88.73;100177.97;5011739;28;20049;-45
2023/08/26 07:25:18;;;;;;;4.50;0.95;;;;;;;14.70;88.63;100172.88;5006017;28;20516;-50
2023/08/26 07:27:45;;;;;;;6.20;1.00;;;;;;;14.78;88.20;100174.53;5000567;28;20042;-45
2023/08/26 07:30:13;;;;;;;5.22;1.30;;;;;;;14.91;88.17;100178.59;5011385;28;20096;-48
2023/08/26 07:32:41;;;;;;;4.70;1.83;;;;;;;14.97;87.72;100177.06;5011369;28;20112;-46
2023/08/26 07:35:09;;;;;;;3.65;0.80;;;;;;;14.99;87.71;100168.28;5011813;28;20038;-49
2023/08/26 07:37:36;;;;;;;4.40;0.80;;;;;;;15.02;87.81;100176.69;5007919;28;20060;-44
2023/08/26 07:40:05;;;;;;;2.33;0.82;;;;;;;15.08;87.82;100177.13;5010389;28;20049;-45
2023/08/26 07:42:34;;;;;;;2.55;0.98;;;;;;;15.27;87.81;100179.63;5012490;28;20532;-45
2023/08/26 07:45:02;;;;;;;3.95;0.90;;;;;;;15.44;87.67;100169.72;5012829;28;20052;-45
2023/08/26 07:47:29;;;;;;;2.00;0.60;;;;;;;15.50;86.85;100179.38;5012372;28;20050;-45
2023/08/26 07:50:16;;;;;;;4.82;0.75;;;;;;;15.43;86.43;100182.09;4984656;28;20042;-44
2023/08/26 07:52:43;;;;;;;4.40;0.80;;;;;;;15.49;86.67;100186.94;5012900;28;20064;-46
2023/08/26 07:55:09;;;;;;;2.10;1.20;;;;;;;15.59;86.66;100182.59;5011343;28;20049;-45
2023/08/26 07:57:36;;;;;;;9.57;2.00;;;;;;;15.61;86.29;100185.78;5012654;28;20092;-46
2023/08/26 08:00:05;;;;;;;3.88;0.80;;;;;;;15.64;85.97;100185.00;5011157;28;20056;-45
2023/08/26 08:02:35;;;;;;;5.97;0.60;;;;;;;15.68;85.97;100189.41;5007656;28;20068;-45
2023/08/26 08:05:02;;;;;;;3.65;0.80;;;;;;;15.76;85.99;100187.44;4991005;28;20049;-45
2023/08/26 08:07:29;;;;;;;2.47;0.68;;;;;;;15.91;85.87;100191.09;4999856;28;20104;-45
2023/08/26 08:09:56;;;;;;;2.78;0.82;;;;;;;16.10;86.01;100185.94;5011310;28;20042;-44
2023/08/26 08:12:24;;;;;;;3.25;0.80;;;;;;;16.34;85.97;100182.38;4998762;28;20112;-44
2023/08/26 08:14:50;;;;;;;2.85;0.73;;;;;;;16.60;85.92;100188.81;5008754;28;20487;-44
2023/08/26 08:17:18;;;;;;;3.65;0.60;;;;;;;16.67;85.18;100177.63;5008816;28;20076;-45
2023/08/26 08:19:45;;;;;;;4.93;0.95;;;;;;;16.70;85.04;100188.81;5010805;28;20070;-44
2023/08/26 08:22:13;;;;;;;2.67;0.70;;;;;;;16.84;84.82;100188.81;5010596;28;20046;-44
2023/08/26 08:24:40;;;;;;;2.60;0.63;;;;;;;17.02;84.31;100194.38;5011640;28;20400;-45
2023/08/26 08:27:07;;;;;;;3.97;0.75;;;;;;;17.13;83.62;100188.78;5012267;28;20852;-45
2023/08/26 08:29:33;;;;;;;4.43;1.70;;;;;;;17.25;83.30;100185.53;5011590;28;20439;-45
2023/08/26 08:32:02;;;;;;;5.15;0.90;;;;;;;17.38;82.82;100195.91;5011365;28;20062;-44
2023/08/26 08:34:29;;;;;;;5.30;0.90;;;;;;;17.43;82.12;100194.69;5011442;28;20447;-45
2023/08/26 08:36:55;;;;;;;2.88;0.70;;;;;;;17.31;81.38;100184.75;5011735;28;20464;-46
2023/08/26 08:39:23;;;;;;;2.10;1.00;;;;;;;17.05;80.75;100191.56;5011549;28;20050;-46
2023/08/26 08:41:51;;;;;;;2.15;0.80;;;;;;;16.88;80.75;100195.19;5011912;28;20050;-46
2023/08/26 08:44:22;;;;;;;5.88;1.38;;;;;;;16.73;80.82;100192.81;5023948;28;20062;-47
2023/08/26 08:46:49;;;;;;;2.58;0.77;;;;;;;16.61;80.81;100196.81;5010588;28;20041;-44
2023/08/26 08:49:16;;;;;;;2.97;0.88;;;;;;;16.48;80.55;100194.78;5007192;28;20049;-44
2023/08/26 08:51:44;;;;;;;1.00;0.65;;;;;;;16.38;80.80;100193.56;5011485;28;20056;-45
2023/08/26 08:54:10;;;;;;;4.32;0.70;;;;;;;16.34;80.78;100203.94;4994178;28;20058;-45
2023/08/26 08:56:38;;;;;;;5.57;0.95;;;;;;;16.34;80.71;100199.16;5009681;28;20129;-44
2023/08/26 08:59:05;;;;;;;3.88;0.80;;;;;;;16.29;80.73;100190.34;5010383;28;20045;-46
2023/08/26 09:01:33;;;;;;;6.68;0.90;;;;;;;16.27;80.80;100199.16;5011819;28;20165;-46
2023/08/26 09:04:00;;;;;;;4.20;1.00;;;;;;;16.25;80.65;100193.16;5011629;28;20073;-45
2023/08/26 09:06:27;;;;;;;3.70;1.00;;;;;;;16.27;80.84;100201.13;5011683;28;20208;-45
2023/08/26 09:08:59;;;;;;;3.28;1.00;;;;;;;16.31;80.76;100199.94;4992571;28;20061;-46
2023/08/26 09:11:27;;;;;;;5.40;0.90;;;;;;;16.31;80.47;100197.13;4993827;28;20096;-45
2023/08/26 09:13:54;;;;;;;2.05;0.80;;;;;;;16.38;80.78;100197.16;5011041;28;20048;-47
2023/08/26 09:16:38;;;;;;;3.33;0.85;;;;;;;16.68;80.64;100205.19;5006030;28;20046;-47
2023/08/26 09:19:06;;;;;;;7.53;1.08;;;;;;;17.11;79.97;100211.53;4988850;28;20108;-45
2023/08/26 09:21:33;;;;;;;3.08;0.73;;;;;;;17.33;79.39;100209.50;5010614;28;20514;-45
2023/08/26 09:24:00;;;;;;;2.55;0.65;;;;;;;17.50;79.11;100215.03;5011074;28;20459;-45
2023/08/26 09:26:27;;;;;;;1.92;0.98;;;;;;;17.56;78.91;100213.47;5011083;28;20133;-45
2023/08/26 09:28:54;;;;;;;3.60;0.85;;;;;;;17.48;78.83;100223.06;5011423;28;20046;-45
2023/08/26 09:31:21;;;;;;;3.63;0.90;;;;;;;17.38;78.99;100223.88;5011058;28;20038;-44
2023/08/26 09:34:00;;;;;;;3.83;0.80;;;;;;;17.36;79.52;100220.69;4994122;28;20041;-45
2023/08/26 09:36:40;;;;;;;3.47;0.80;;;;;;;17.90;79.22;100222.09;5010963;28;20123;-46
2023/08/26 09:39:13;;;;;;;3.70;1.02;;;;;;;18.98;77.43;100229.44;5010954;28;20050;-44
2023/08/26 09:41:44;;;;;;;3.38;1.48;;;;;;;19.67;75.42;100234.75;5006042;28;20423;-45
2023/08/26 09:44:12;;;;;;;4.25;1.30;;;;;;;20.35;73.49;100233.47;5010457;28;20092;-46
2023/08/26 09:46:39;;;;;;;4.57;1.42;;;;;;;21.09;71.80;100240.75;4997472;28;20443;-46
2023/08/26 09:49:06;;;;;;;2.13;1.10;;;;;;;22.00;69.94;100240.22;5012660;28;20042;-45
2023/08/26 09:51:34;;;;;;;3.38;1.67;;;;;;;22.66;67.62;100236.34;5015391;28;20398;-46
2023/08/26 09:54:01;;;;;;;4.45;1.80;;;;;;;22.65;66.94;100241.19;5014778;28;20550;-45
2023/08/26 09:56:28;;;;;;;3.53;1.08;;;;;;;23.06;65.67;100249.03;5014464;28;20582;-46
2023/08/26 09:58:56;;;;;;;5.13;1.30;;;;;;;23.05;63.28;100244.66;5014670;28;20049;-46
2023/08/26 10:01:24;;;;;;;4.22;1.30;;;;;;;22.48;64.12;100252.88;5006626;28;20484;-48
2023/08/26 10:03:59;;;;;;;2.03;1.00;;;;;;;22.20;65.62;100254.28;5007283;28;20092;-45
2023/08/26 10:06:29;;;;;;;5.18;1.50;;;;;;;22.61;63.88;100253.78;5014594;28;20757;-45
2023/08/26 10:09:06;;;;;;;3.70;1.35;;;;;;;22.92;63.21;100249.41;5014938;28;20046;-45
2023/08/26 10:11:38;;;;;;;2.28;1.33;;;;;;;23.69;62.25;100259.94;4996583;28;20054;-46
2023/08/26 10:14:11;;;;;;;3.22;0.80;;;;;;;24.24;60.07;100253.88;5013546;28;20054;-45
2023/08/26 10:16:39;;;;;;;3.53;0.82;;;;;;;24.66;58.33;100261.06;5011766;28;20523;-46
2023/08/26 10:19:07;;;;;;;3.03;1.30;;;;;;;25.19;57.48;100267.03;4986540;28;20042;-45
2023/08/26 10:21:36;;;;;;;2.55;0.75;;;;;;;25.72;55.98;100271.66;5008906;28;20081;-46
2023/08/26 10:24:04;;;;;;;1.75;0.47;;;;;;;26.06;54.87;100272.84;5013335;28;20054;-49
2023/08/26 10:26:31;;;;;;;3.10;0.65;;;;;;;26.37;53.64;100270.88;5013497;28;20125;-45
2023/08/26 10:28:58;;;;;;;1.85;0.77;;;;;;;26.26;53.00;100284.69;5014242;28;20045;-46
2023/08/26 10:31:36;;;;;;;2.70;0.70;;;;;;;25.21;54.79;100279.50;5013840;28;20049;-46
2023/08/26 10:34:05;;;;;;;1.58;0.70;;;;;;;24.45;55.62;100273.03;5013780;28;20049;-49
2023/08/26 10:36:39;;;;;;;2.53;0.57;;;;;;;24.50;55.82;100269.66;5013634;28;20065;-45
2023/08/26 10:39:18;;;;;;;2.28;0.70;;;;;;;24.41;55.62;100275.19;5013629;28;20045;-45
2023/08/26 10:42:13;;;;;;;3.25;1.70;;;;;;;23.48;57.19;100276.19;5002618;28;20049;-45
2023/08/26 10:44:44;;;;;;;3.42;1.27;;;;;;;22.49;58.71;100277.03;5012889;28;20044;-45
2023/08/26 10:47:14;;;;;;;2.75;1.00;;;;;;;21.57;60.67;100267.66;5013628;28;20049;-44
2023/08/26 10:49:41;;;;;;;5.45;1.27;;;;;;;20.81;62.13;100272.13;5013908;28;20080;-44
2023/08/26 10:52:16;;;;;;;3.55;1.27;;;;;;;20.68;63.07;100270.38;4992430;28;20136;-46
2023/08/26 10:54:46;;;;;;;4.80;1.75;;;;;;;21.39;62.61;100275.63;5006158;28;20113;-44
2023/08/26 10:57:13;;;;;;;4.43;1.30;;;;;;;21.85;61.55;100267.88;4989110;28;20047;-44
2023/08/26 10:59:42;;;;;;;3.47;1.65;;;;;;;21.96;61.25;100267.69;5011416;28;20050;-45
2023/08/26 11:02:11;;;;;;;4.68;2.17;;;;;;;21.62;61.37;100281.22;5011000;28;20061;-44
2023/08/26 11:04:44;;;;;;;4.13;1.15;;;;;;;21.02;62.45;100277.41;5010401;28;20519;-43
2023/08/26 11:07:15;;;;;;;2.53;0.80;;;;;;;20.36;63.60;100276.47;5009786;28;20412;-45
2023/08/26 11:09:43;;;;;;;3.65;1.30;;;;;;;19.80;64.79;100270.28;5012417;28;20041;-44
2023/08/26 11:12:26;;;;;;;6.93;1.70;;;;;;;19.57;65.71;100267.34;5009034;28;20617;-42
2023/08/26 11:15:03;;;;;;;1.67;0.90;;;;;;;19.72;65.82;100276.44;5008041;28;20042;-43
2023/08/26 11:17:30;;;;;;;4.30;0.80;;;;;;;19.77;65.58;100271.16;5020676;28;20397;-43
2023/08/26 11:20:08;;;;;;;3.85;1.05;;;;;;;19.85;65.62;100269.06;5005961;28;20050;-44
2023/08/26 11:22:35;;;;;;;3.00;0.70;;;;;;;19.88;65.64;100269.00;5009315;28;20415;-43
2023/08/26 11:25:03;;;;;;;3.83;0.75;;;;;;;19.72;65.77;100280.03;5011255;28;20045;-43
2023/08/26 11:27:29;;;;;;;1.80;0.90;;;;;;;19.51;66.17;100280.28;5012261;28;20092;-43
2023/08/26 11:29:56;;;;;;;2.55;1.45;;;;;;;19.62;66.56;100280.16;5011538;28;20053;-44